createdAt,value
2023-01-06T00:01:38.546Z,101395.69
2023-01-06T00:04:07.036Z,101399.34
2023-01-06T00:06:35.557Z,101403.88
2023-01-06T00:09:05.961Z,101402.16
2023-01-06T00:11:34.729Z,101413.75
2023-01-06T00:14:03.195Z,101416.53
2023-01-06T00:16:31.674Z,101418.44
2023-01-06T00:19:01.597Z,101425.56
2023-01-06T00:21:30.843Z,101431.78
2023-01-06T00:23:59.359Z,101434.50
2023-01-06T00:26:27.936Z,101444.38
2023-01-06T00:28:57.928Z,101459.50
2023-01-06T00:31:26.309Z,101456.09
2023-01-06T00:33:58.258Z,101450.88
2023-01-06T00:36:26.904Z,101465.97
2023-01-06T00:38:55.359Z,101465.09
2023-01-06T00:41:45.628Z,101477.53
2023-01-06T00:44:14.085Z,101482.06
2023-01-06T00:46:42.440Z,101484.75
2023-01-06T00:49:10.867Z,101491.88
2023-01-06T00:51:41.219Z,101502.56
2023-01-06T00:54:12.193Z,101511.47
2023-01-06T00:56:43.646Z,101514.16
2023-01-06T00:59:14.871Z,101527.44
2023-01-06T01:01:44.560Z,101522.13
2023-01-06T01:04:12.937Z,101536.31
2023-01-06T01:06:43.705Z,101539.88
2023-01-06T01:09:22.843Z,101541.66
2023-01-06T01:12:09.933Z,101543.53
2023-01-06T01:14:48.193Z,101541.84
2023-01-06T01:17:20.191Z,101545.41
2023-01-06T01:19:50.611Z,101552.56
2023-01-06T01:22:19.535Z,101561.38
2023-01-06T01:24:47.797Z,101564.03
2023-01-06T01:27:16.497Z,101570.28
2023-01-06T01:29:44.888Z,101572.97
2023-01-06T01:32:13.382Z,101577.44
2023-01-06T01:34:41.710Z,101586.28
2023-01-06T01:37:10.133Z,101590.78
2023-01-06T01:39:38.567Z,101594.44
2023-01-06T01:42:15.487Z,101596.31
2023-01-06T01:45:03.019Z,101597.25
2023-01-06T01:47:40.306Z,101599.19
2023-01-06T01:50:23.637Z,101612.56
2023-01-06T01:52:56.151Z,101625.91
2023-01-06T01:55:26.352Z,101632.19
2023-01-06T01:58:18.511Z,101626.03
2023-01-06T02:00:47.109Z,101642.00
2023-01-06T02:03:17.000Z,101650.88
2023-01-06T02:05:52.344Z,101655.25
2023-01-06T02:08:28.275Z,101650.88
2023-01-06T02:10:56.789Z,101664.16
2023-01-06T02:13:25.423Z,101660.66
2023-01-06T02:16:06.002Z,101669.47
2023-01-06T02:19:13.794Z,101684.50
2023-01-06T02:22:15.532Z,101696.81
2023-01-06T02:25:09.206Z,101699.44
2023-01-06T02:27:40.208Z,101698.56
2023-01-06T02:30:30.248Z,101709.19
2023-01-06T02:33:28.634Z,101722.44
2023-01-06T02:36:20.023Z,101728.59
2023-01-06T02:39:14.205Z,101736.53
2023-01-06T02:42:06.490Z,101742.75
2023-01-06T02:44:40.242Z,101748.06
2023-01-06T02:47:43.302Z,101749.78
2023-01-06T02:50:42.092Z,101759.53
2023-01-06T02:53:33.524Z,101763.03
2023-01-06T02:56:03.770Z,101768.34
2023-01-06T02:58:40.213Z,101773.66
2023-01-06T03:01:16.548Z,101776.31
2023-01-06T03:03:48.958Z,101776.31
2023-01-06T03:06:22.675Z,101787.81
2023-01-06T03:08:54.617Z,101794.94
2023-01-06T03:11:24.010Z,101808.19
2023-01-06T03:14:00.995Z,101810.94
2023-01-06T03:16:29.449Z,101818.94
2023-01-06T03:18:59.352Z,101825.22
2023-01-06T03:21:34.225Z,101823.47
2023-01-06T03:24:02.863Z,101823.59
2023-01-06T03:26:32.167Z,101831.59
2023-01-06T03:29:01.716Z,101837.84
2023-01-06T03:32:03.796Z,101839.66
2023-01-06T03:35:06.085Z,101840.56
2023-01-06T03:38:01.659Z,101837.09
2023-01-06T03:40:44.715Z,101846.88
2023-01-06T03:43:43.352Z,101849.50
2023-01-06T03:46:50.344Z,101854.88
2023-01-06T03:49:35.602Z,101865.53
2023-01-06T03:52:13.213Z,101869.09
2023-01-06T03:54:44.344Z,101868.28
2023-01-06T03:57:17.439Z,101872.69
2023-01-06T04:00:00.107Z,101886.84
2023-01-06T04:02:29.069Z,101893.94
2023-01-06T04:05:19.164Z,101904.53
2023-01-06T04:07:48.132Z,101914.25
2023-01-06T04:10:19.059Z,101915.13
2023-01-06T04:12:47.374Z,101922.22
2023-01-06T04:15:19.720Z,101919.56
2023-01-06T04:17:49.127Z,101933.72
2023-01-06T04:20:29.403Z,101931.09
2023-01-06T04:22:59.018Z,101941.72
2023-01-06T04:25:27.679Z,101946.16
2023-01-06T04:27:56.229Z,101950.59
2023-01-06T04:30:24.630Z,101953.31
2023-01-06T04:32:52.970Z,101948.91
2023-01-06T04:35:21.295Z,101946.25
2023-01-06T04:37:49.589Z,101949.78
2023-01-06T04:40:18.007Z,101959.53
2023-01-06T04:43:04.748Z,101949.84
2023-01-06T04:45:34.300Z,101957.84
2023-01-06T04:48:02.895Z,101951.72
2023-01-06T04:50:31.259Z,101961.47
2023-01-06T04:52:59.860Z,101957.09
2023-01-06T04:55:28.252Z,101957.09
2023-01-06T04:57:56.589Z,101964.13
2023-01-06T05:00:25.560Z,101965.06
2023-01-06T05:02:53.882Z,101973.94
2023-01-06T05:05:23.188Z,101976.59
2023-01-06T05:07:55.650Z,101983.66
2023-01-06T05:10:24.311Z,101987.19
2023-01-06T05:12:52.635Z,101989.88
2023-01-06T05:15:20.955Z,101996.91
2023-01-06T05:17:49.274Z,101997.81
2023-01-06T05:20:17.779Z,102008.41
2023-01-06T05:22:46.393Z,102012.84
2023-01-06T05:25:14.853Z,102019.00
2023-01-06T05:27:43.284Z,102019.91
2023-01-06T05:30:12.283Z,102020.75
2023-01-06T05:32:40.706Z,102011.97
2023-01-06T05:35:09.429Z,102017.28
2023-01-06T05:37:37.774Z,102019.94
2023-01-06T05:40:06.522Z,102026.09
2023-01-06T05:42:34.989Z,102021.69
2023-01-06T05:45:03.465Z,102030.50
2023-01-06T05:47:31.769Z,102030.47
2023-01-06T05:50:00.062Z,102032.25
2023-01-06T05:52:28.630Z,102036.66
2023-01-06T05:54:57.226Z,102033.09
2023-01-06T05:57:25.589Z,102042.78
2023-01-06T05:59:53.931Z,102040.09
2023-01-06T06:02:22.279Z,102045.38
2023-01-06T06:04:50.725Z,102054.16
2023-01-06T06:07:19.184Z,102050.59
2023-01-06T06:09:47.624Z,102052.31
2023-01-06T06:12:15.990Z,102051.41
2023-01-06T06:14:44.323Z,102051.38
2023-01-06T06:17:12.631Z,102052.25
2023-01-06T06:19:41.118Z,102050.44
2023-01-06T06:22:10.755Z,102043.41
2023-01-06T06:24:39.245Z,102043.38
2023-01-06T06:27:07.622Z,102047.75
2023-01-06T06:29:35.984Z,102050.38
2023-01-06T06:32:04.375Z,102051.22
2023-01-06T06:34:32.764Z,102051.22
2023-01-06T06:37:01.093Z,102048.53
2023-01-06T06:39:29.669Z,102050.31
2023-01-06T06:41:58.001Z,102045.00
2023-01-06T06:44:26.409Z,102061.78
2023-01-06T06:46:54.765Z,102058.25
2023-01-06T06:49:23.195Z,102067.94
2023-01-06T06:51:51.477Z,102061.75
2023-01-06T06:54:19.857Z,102061.69
2023-01-06T06:56:48.193Z,102059.06
2023-01-06T06:59:16.523Z,102057.25
2023-01-06T07:01:44.937Z,102053.72
2023-01-06T07:04:13.574Z,102065.19
2023-01-06T07:06:41.941Z,102063.44
2023-01-06T07:09:10.381Z,102069.63
2023-01-06T07:11:38.774Z,102074.88
2023-01-06T07:14:07.208Z,102069.56
2023-01-06T07:16:35.504Z,102072.19
2023-01-06T07:19:03.849Z,102075.69
2023-01-06T07:21:32.147Z,102084.53
2023-01-06T07:24:00.600Z,102098.66
2023-01-06T07:26:29.071Z,102106.63
2023-01-06T07:28:57.392Z,102099.59
2023-01-06T07:31:25.722Z,102101.34
2023-01-06T07:33:54.869Z,102111.97
2023-01-06T07:36:23.189Z,102111.97
2023-01-06T07:38:51.535Z,102105.78
2023-01-06T07:41:19.909Z,102107.56
2023-01-06T07:43:48.188Z,102112.88
2023-01-06T07:46:16.520Z,102112.00
2023-01-06T07:48:44.901Z,102112.03
2023-01-06T07:51:13.272Z,102119.16
2023-01-06T07:53:41.743Z,102107.72
2023-01-06T07:56:10.088Z,102107.72
2023-01-06T07:58:38.398Z,102107.72
2023-01-06T08:01:08.659Z,102111.28
2023-01-06T08:03:37.334Z,102111.25
2023-01-06T08:06:12.749Z,102113.00
2023-01-06T08:08:42.886Z,102111.22
2023-01-06T08:11:14.349Z,102112.94
2023-01-06T08:13:42.723Z,102118.25
2023-01-06T08:16:12.176Z,102112.97
2023-01-06T08:18:40.634Z,102116.47
2023-01-06T08:21:11.191Z,102118.22
2023-01-06T08:23:39.998Z,102111.19
2023-01-06T08:26:17.136Z,102106.75
2023-01-06T08:28:46.993Z,102102.31
2023-01-06T08:31:18.536Z,102109.38
2023-01-06T08:33:47.468Z,102119.97
2023-01-06T08:36:19.050Z,102112.88
2023-01-06T08:38:48.633Z,102117.31
2023-01-06T08:41:17.136Z,102117.31
2023-01-06T08:43:47.039Z,102128.81
2023-01-06T08:46:21.267Z,102128.81
2023-01-06T08:48:50.308Z,102132.31
2023-01-06T08:51:21.793Z,102125.25
2023-01-06T08:53:50.352Z,102125.22
2023-01-06T08:56:29.528Z,102129.63
2023-01-06T08:59:02.633Z,102129.59
2023-01-06T09:01:34.589Z,102134.00
2023-01-06T09:04:06.750Z,102136.66
2023-01-06T09:06:35.358Z,102137.50
2023-01-06T09:09:06.308Z,102138.38
2023-01-06T09:11:35.205Z,102136.63
2023-01-06T09:14:03.623Z,102142.81
2023-01-06T09:16:31.971Z,102136.59
2023-01-06T09:19:00.568Z,102138.38
2023-01-06T09:21:28.949Z,102141.03
2023-01-06T09:23:57.362Z,102134.84
2023-01-06T09:26:25.872Z,102141.91
2023-01-06T09:28:54.294Z,102138.41
2023-01-06T09:31:22.763Z,102143.69
2023-01-06T09:33:51.142Z,102138.44
2023-01-06T09:36:19.516Z,102138.47
2023-01-06T09:38:47.806Z,102126.13
2023-01-06T09:41:37.641Z,102132.31
2023-01-06T09:44:18.986Z,102140.28
2023-01-06T09:46:51.688Z,102136.72
2023-01-06T09:49:44.473Z,102143.81
2023-01-06T09:52:30.941Z,102138.47
2023-01-06T09:55:16.427Z,102157.03
2023-01-06T09:57:53.343Z,102150.84
2023-01-06T10:00:48.475Z,102152.63
2023-01-06T10:03:28.354Z,102150.88
2023-01-06T10:06:12.035Z,102153.47
2023-01-06T10:08:58.830Z,102149.94
2023-01-06T10:11:32.825Z,102153.53
2023-01-06T10:14:19.643Z,102145.56
2023-01-06T10:17:19.624Z,102141.16
2023-01-06T10:20:24.801Z,102143.75
2023-01-06T10:23:15.509Z,102146.41
2023-01-06T10:25:52.152Z,102149.94
2023-01-06T10:28:35.324Z,102155.25
2023-01-06T10:31:12.495Z,102151.75
2023-01-06T10:33:50.345Z,102149.09
2023-01-06T10:36:22.248Z,102151.75
2023-01-06T10:38:54.728Z,102150.88
2023-01-06T10:41:45.299Z,102157.06
2023-01-06T10:44:15.146Z,102155.31
2023-01-06T10:46:46.313Z,102159.72
2023-01-06T10:49:20.142Z,102159.72
2023-01-06T10:52:00.483Z,102155.28
2023-01-06T10:54:35.196Z,102155.25
2023-01-06T10:57:13.111Z,102148.22
2023-01-06T11:00:10.709Z,102142.91
2023-01-06T11:02:49.614Z,102146.44
2023-01-06T11:05:29.596Z,102138.50
2023-01-06T11:08:05.925Z,102143.78
2023-01-06T11:10:53.913Z,102142.03
2023-01-06T11:13:25.341Z,102142.94
2023-01-06T11:15:55.101Z,102147.34
2023-01-06T11:18:32.379Z,102160.63
2023-01-06T11:21:17.143Z,102165.06
2023-01-06T11:23:48.149Z,102156.25
2023-01-06T11:26:20.699Z,102157.16
2023-01-06T11:28:51.180Z,102158.91
2023-01-06T11:31:26.943Z,102157.16
2023-01-06T11:34:01.588Z,102152.78
2023-01-06T11:36:34.077Z,102153.66
2023-01-06T11:39:14.891Z,102153.66
2023-01-06T11:41:48.310Z,102147.47
2023-01-06T11:44:27.361Z,102146.59
2023-01-06T11:47:20.326Z,102142.19
2023-01-06T11:49:58.548Z,102134.22
2023-01-06T11:52:32.150Z,102135.16
2023-01-06T11:55:23.860Z,102129.88
2023-01-06T11:58:17.434Z,102129.91
2023-01-06T12:00:48.313Z,102128.19
2023-01-06T12:03:34.081Z,102133.47
2023-01-06T12:06:14.708Z,102130.84
2023-01-06T12:09:12.480Z,102125.56
2023-01-06T12:11:51.839Z,102118.53
2023-01-06T12:14:29.759Z,102121.19
2023-01-06T12:16:58.785Z,102104.44
2023-01-06T12:19:40.447Z,102093.84
2023-01-06T12:22:38.190Z,102085.94
2023-01-06T12:25:14.387Z,102089.47
2023-01-06T12:27:56.876Z,102090.41
2023-01-06T12:30:36.161Z,102088.63
2023-01-06T12:33:22.352Z,102093.94
2023-01-06T12:35:55.669Z,102095.69
2023-01-06T12:38:45.268Z,102093.94
2023-01-06T12:41:38.234Z,102085.13
2023-01-06T12:44:18.607Z,102078.06
2023-01-06T12:46:56.950Z,102071.91
2023-01-06T12:49:43.672Z,102075.44
2023-01-06T12:52:36.480Z,102080.72
2023-01-06T12:55:06.524Z,102083.38
2023-01-06T12:57:45.743Z,102093.97
2023-01-06T13:00:46.833Z,102105.47
2023-01-06T13:03:18.224Z,102100.19
2023-01-06T13:06:10.812Z,102098.41
2023-01-06T13:09:06.125Z,102095.75
2023-01-06T13:11:37.272Z,102106.34
2023-01-06T13:14:14.546Z,102111.63
2023-01-06T13:16:52.986Z,102113.41
2023-01-06T13:19:27.036Z,102105.47
2023-01-06T13:21:58.867Z,102101.94
2023-01-06T13:24:45.909Z,102105.47
2023-01-06T13:27:38.707Z,102111.63
2023-01-06T13:30:24.986Z,102115.16
2023-01-06T13:33:04.906Z,102119.56
2023-01-06T13:36:00.758Z,102119.56
2023-01-06T13:38:47.323Z,102128.41
2023-01-06T13:41:24.164Z,102131.91
2023-01-06T13:43:56.295Z,102139.88
2023-01-06T13:46:27.096Z,102133.66
2023-01-06T13:48:59.986Z,102134.56
2023-01-06T13:51:35.196Z,102135.44
2023-01-06T13:54:04.285Z,102133.69
2023-01-06T13:56:37.753Z,102138.97
2023-01-06T13:59:25.104Z,102146.03
2023-01-06T14:01:54.315Z,102143.41
2023-01-06T14:04:36.793Z,102151.34
2023-01-06T14:07:06.070Z,102149.56
2023-01-06T14:09:40.785Z,102157.47
2023-01-06T14:12:12.902Z,102157.50
2023-01-06T14:14:41.230Z,102164.59
2023-01-06T14:17:33.148Z,102154.88
2023-01-06T14:20:01.578Z,102160.16
2023-01-06T14:22:30.801Z,102166.34
2023-01-06T14:25:09.599Z,102158.41
2023-01-06T14:27:47.062Z,102167.25
2023-01-06T14:30:32.806Z,102169.88
2023-01-06T14:33:05.930Z,102178.69
2023-01-06T14:35:45.077Z,102177.81
2023-01-06T14:38:25.496Z,102186.63
2023-01-06T14:41:04.402Z,102187.50
2023-01-06T14:43:40.901Z,102198.97
2023-01-06T14:46:18.484Z,102200.75
2023-01-06T14:49:02.396Z,102209.56
2023-01-06T14:51:32.635Z,102224.53
2023-01-06T14:54:09.871Z,102227.19
2023-01-06T14:56:38.177Z,102228.09
2023-01-06T14:59:12.931Z,102236.88
2023-01-06T15:01:44.568Z,102238.66
2023-01-06T15:04:31.647Z,102238.66
2023-01-06T15:07:21.108Z,102226.31
2023-01-06T15:09:51.683Z,102218.41
2023-01-06T15:12:31.834Z,102225.44
2023-01-06T15:15:23.997Z,102227.19
2023-01-06T15:17:54.412Z,102227.19
2023-01-06T15:20:40.359Z,102223.66
2023-01-06T15:23:09.223Z,102225.44
2023-01-06T15:25:39.358Z,102221.91
2023-01-06T15:28:07.722Z,102228.09
2023-01-06T15:30:37.545Z,102235.13
2023-01-06T15:33:06.570Z,102238.66
2023-01-06T15:35:35.080Z,102244.84
2023-01-06T15:38:35.724Z,102237.78
2023-01-06T15:41:06.971Z,102240.44
2023-01-06T15:43:45.367Z,102247.47
2023-01-06T15:46:14.711Z,102254.53
2023-01-06T15:48:49.792Z,102272.16
2023-01-06T15:51:22.751Z,102283.66
2023-01-06T15:53:57.358Z,102291.59
2023-01-06T15:56:26.897Z,102287.16
2023-01-06T15:58:57.524Z,102292.47
2023-01-06T16:01:26.458Z,102301.28
2023-01-06T16:04:03.443Z,102293.34
2023-01-06T16:06:41.677Z,102295.97
2023-01-06T16:09:23.610Z,102297.75
2023-01-06T16:12:01.041Z,102297.75
2023-01-06T16:14:36.569Z,102292.44
2023-01-06T16:17:13.699Z,102293.31
2023-01-06T16:19:48.953Z,102295.03
2023-01-06T16:22:34.323Z,102294.19
2023-01-06T16:25:20.733Z,102299.44
2023-01-06T16:27:51.908Z,102310.91
2023-01-06T16:30:30.193Z,102314.41
2023-01-06T16:33:01.138Z,102310.00
2023-01-06T16:35:32.268Z,102318.81
2023-01-06T16:38:00.925Z,102325.88
2023-01-06T16:40:31.065Z,102329.38
2023-01-06T16:43:02.326Z,102325.81
2023-01-06T16:45:45.209Z,102323.16
2023-01-06T16:48:18.164Z,102316.97
2023-01-06T16:50:54.140Z,102328.47
2023-01-06T16:53:24.224Z,102333.78
2023-01-06T16:55:55.427Z,102328.47
2023-01-06T16:58:30.321Z,102329.34
2023-01-06T17:01:09.075Z,102331.09
2023-01-06T17:03:39.448Z,102332.84
2023-01-06T17:06:19.450Z,102336.38
2023-01-06T17:08:48.721Z,102343.44
2023-01-06T17:11:21.486Z,102351.34
2023-01-06T17:14:00.419Z,102364.59
2023-01-06T17:16:36.258Z,102368.94
2023-01-06T17:19:08.420Z,102372.44
2023-01-06T17:21:38.810Z,102364.41
2023-01-06T17:24:09.926Z,102367.91
2023-01-06T17:26:41.367Z,102377.63
2023-01-06T17:29:18.520Z,102378.47
2023-01-06T17:31:53.177Z,102379.31
2023-01-06T17:34:24.677Z,102370.44
2023-01-06T17:36:54.816Z,102369.53
2023-01-06T17:39:33.646Z,102375.66
2023-01-06T17:42:13.850Z,102366.78
2023-01-06T17:44:47.961Z,102364.97
2023-01-06T17:47:19.187Z,102361.41
2023-01-06T17:49:57.914Z,102370.19
2023-01-06T17:52:34.026Z,102365.69
2023-01-06T17:55:26.787Z,102369.19
2023-01-06T17:58:00.237Z,102366.44
2023-01-06T18:00:32.322Z,102365.47
2023-01-06T18:03:03.869Z,102367.19
2023-01-06T18:05:34.173Z,102363.56
2023-01-06T18:08:08.731Z,102360.84
2023-01-06T18:10:45.855Z,102359.03
2023-01-06T18:13:16.385Z,102358.06
2023-01-06T18:15:46.461Z,102360.63
2023-01-06T18:18:24.955Z,102355.22
2023-01-06T18:21:06.980Z,102357.78
2023-01-06T18:23:36.151Z,102355.03
2023-01-06T18:26:28.730Z,102340.72
2023-01-06T18:29:11.853Z,102337.97
2023-01-06T18:31:41.589Z,102335.25
2023-01-06T18:34:41.566Z,102327.28
2023-01-06T18:37:09.913Z,102328.09
2023-01-06T18:39:47.342Z,102314.72
2023-01-06T18:42:29.383Z,102312.00
2023-01-06T18:45:17.049Z,102310.16
2023-01-06T18:47:47.610Z,102300.22
2023-01-06T18:50:28.964Z,102303.69
2023-01-06T18:53:06.393Z,102298.28
2023-01-06T18:55:40.422Z,102301.66
2023-01-06T18:58:36.113Z,102293.53
2023-01-06T19:01:16.801Z,102287.19
2023-01-06T19:03:59.026Z,102285.38
2023-01-06T19:06:51.140Z,102283.56
2023-01-06T19:09:39.309Z,102287.00
2023-01-06T19:12:10.466Z,102279.84
2023-01-06T19:14:44.137Z,102276.19
2023-01-06T19:17:38.326Z,102285.84
2023-01-06T19:20:17.807Z,102279.59
2023-01-06T19:22:46.986Z,102272.47
2023-01-06T19:25:41.890Z,102277.84
2023-01-06T19:28:30.440Z,102259.16
2023-01-06T19:31:06.299Z,102257.38
2023-01-06T19:33:38.911Z,102258.31
2023-01-06T19:36:07.189Z,102260.94
2023-01-06T19:38:42.501Z,102250.28
2023-01-06T19:41:20.007Z,102255.53
2023-01-06T19:43:49.551Z,102247.53
2023-01-06T19:46:25.091Z,102248.44
2023-01-06T19:48:54.640Z,102243.91
2023-01-06T19:51:22.885Z,102243.81
2023-01-06T19:54:25.264Z,102238.44
2023-01-06T19:56:55.501Z,102234.00
2023-01-06T19:59:26.535Z,102226.88
2023-01-06T20:02:23.155Z,102221.56
2023-01-06T20:04:51.776Z,102217.91
2023-01-06T20:07:20.461Z,102216.84
2023-01-06T20:09:48.873Z,102211.22
2023-01-06T20:12:17.265Z,102203.91
2023-01-06T20:14:45.692Z,102218.94
2023-01-06T20:17:15.514Z,102211.69
2023-01-06T20:19:43.804Z,102199.13
2023-01-06T20:22:12.247Z,102198.97
2023-01-06T20:24:41.164Z,102197.06
2023-01-06T20:27:09.519Z,102185.38
2023-01-06T20:29:37.829Z,102186.19
2023-01-06T20:32:09.791Z,102184.34
2023-01-06T20:34:38.163Z,102185.22
2023-01-06T20:37:06.628Z,102183.47
2023-01-06T20:39:34.986Z,102174.53
2023-01-06T20:42:05.389Z,102170.88
2023-01-06T20:44:33.749Z,102171.66
2023-01-06T20:47:02.166Z,102178.66
2023-01-06T20:49:30.485Z,102176.00
2023-01-06T20:51:58.794Z,102173.41
2023-01-06T20:54:27.132Z,102161.78
2023-01-06T20:56:55.434Z,102159.06
2023-01-06T20:59:23.932Z,102145.69
2023-01-06T21:01:52.537Z,102148.31
2023-01-06T21:04:21.045Z,102132.22
2023-01-06T21:06:49.380Z,102138.41
2023-01-06T21:09:17.644Z,102141.00
2023-01-06T21:11:45.985Z,102137.28
2023-01-06T21:14:14.275Z,102140.69
2023-01-06T21:16:42.684Z,102133.38
2023-01-06T21:19:11.099Z,102136.75
2023-01-06T21:21:39.455Z,102127.63
2023-01-06T21:24:08.528Z,102123.06
2023-01-06T21:26:36.997Z,102116.69
2023-01-06T21:29:05.364Z,102111.34
2023-01-06T21:31:33.845Z,102115.75
2023-01-06T21:34:02.234Z,102110.47
2023-01-06T21:36:30.607Z,102115.00
2023-01-06T21:38:58.918Z,102116.75
2023-01-06T21:41:45.425Z,102113.13
2023-01-06T21:44:13.741Z,102108.41
2023-01-06T21:46:42.162Z,102102.06
2023-01-06T21:49:10.653Z,102107.22
2023-01-06T21:51:39.605Z,102101.03
2023-01-06T21:54:07.949Z,102099.31
2023-01-06T21:56:37.484Z,102097.66
2023-01-06T21:59:05.991Z,102101.34
2023-01-06T22:01:34.520Z,102092.53
2023-01-06T22:04:02.881Z,102088.09
2023-01-06T22:06:32.151Z,102079.28
2023-01-06T22:09:02.579Z,102083.78
2023-01-06T22:11:32.102Z,102078.66
2023-01-06T22:14:01.332Z,102076.88
2023-01-06T22:16:30.116Z,102073.31
2023-01-06T22:18:58.835Z,102060.00
2023-01-06T22:21:27.908Z,102063.59
2023-01-06T22:23:58.176Z,102060.91
2023-01-06T22:26:26.649Z,102051.03
2023-01-06T22:28:55.067Z,102055.84
2023-01-06T22:31:23.467Z,102048.16
2023-01-06T22:33:51.905Z,102059.31
2023-01-06T22:36:20.296Z,102069.72
2023-01-06T22:38:48.624Z,102070.44
2023-01-06T22:41:17.037Z,102066.03
2023-01-06T22:43:45.379Z,102057.34
2023-01-06T22:46:13.848Z,102062.97
2023-01-06T22:48:44.178Z,102059.63
2023-01-06T22:51:14.159Z,102054.28
2023-01-06T22:53:42.487Z,102047.31
2023-01-06T22:56:13.283Z,102053.66
2023-01-06T22:58:42.332Z,102053.78
2023-01-06T23:01:11.088Z,102057.38
2023-01-06T23:03:39.627Z,102055.59
2023-01-06T23:06:13.548Z,102054.78
2023-01-06T23:08:58.475Z,102050.44
2023-01-06T23:11:28.932Z,102056.72
2023-01-06T23:13:58.830Z,102061.31
2023-01-06T23:16:27.764Z,102059.56
2023-01-06T23:18:56.235Z,102065.88
2023-01-06T23:21:27.604Z,102074.88
2023-01-06T23:23:57.849Z,102070.59
2023-01-06T23:26:29.845Z,102081.34
2023-01-06T23:28:59.155Z,102087.69
2023-01-06T23:31:30.481Z,102088.63
2023-01-06T23:34:04.082Z,102090.47
2023-01-06T23:36:32.493Z,102090.47
2023-01-06T23:39:02.528Z,102105.63
2023-01-06T23:41:33.729Z,102109.09
2023-01-06T23:44:02.809Z,102099.22
2023-01-06T23:46:35.011Z,102095.63
2023-01-06T23:49:04.094Z,102096.63
2023-01-06T23:51:33.217Z,102104.75
2023-01-06T23:54:02.803Z,102100.47
2023-01-06T23:56:33.045Z,102104.31
2023-01-06T23:59:03.288Z,102109.03
